Wharton, Texas
Current Conditions -  °F | °C
As of 5:35 AM on Saturday 22 Nov 2014 (Local Time) from KARM Reporting Station
NA  
Wind Chill: 61°   Ceiling: NA
Heat Index: 61°   Visibility: NA
Dew Point: 60°   Wind: 6mph
Humidity: 97%   Direction: 90°E
Pressure: 30.05"   Gusts: NA
Location:  29.32°N, 96.1°W
Report Text: KARM 221135Z AUTO 09005KT 16/16 A3005 RMK AO2 LTG DSNT N AND NE T01610156 PWINO
Loading
Personal Weather Stations






























Interactive Weather Map New forecast layout! Learn more

10-Day Weather Forecast

Advertisements
Track Severe Weather on mobile